Time;durP1;ratioP1;P1;durP2;ratioP2;P2;SDS_P1;SDS_P2;PMS_P1;PMS_P2;Temp;Humidity;BMP_temperature;BMP_pressure;BME280_temperature;BME280_humidity;BME280_pressure;Samples;Min_cycle;Max_cycle;Signal;HPM_P1;HPM_P2
2023/12/21 00:01:41;;;;;;;1.60;1.20;;;8.90;98.20;;;;;;4968557;28;21065;-83
2023/12/21 00:04:08;;;;;;;1.63;1.20;;;8.90;98.20;;;;;;4983122;28;20696;-85
2023/12/21 00:06:35;;;;;;;1.63;1.20;;;9.00;98.20;;;;;;4962844;28;20549;-86
2023/12/21 00:09:02;;;;;;;1.60;1.20;;;9.00;98.20;;;;;;4971576;28;20500;-85
2023/12/21 00:11:29;;;;;;;1.60;1.13;;;9.00;98.20;;;;;;4964494;28;20568;-85
2023/12/21 00:13:57;;;;;;;1.60;1.20;;;9.00;98.20;;;;;;4971972;28;20757;-85
2023/12/21 00:16:24;;;;;;;1.60;1.20;;;9.00;98.20;;;;;;4974107;28;20952;-85
2023/12/21 00:18:50;;;;;;;1.60;1.10;;;9.00;98.20;;;;;;4973459;28;20501;-85
2023/12/21 00:21:17;;;;;;;1.60;1.10;;;9.00;98.20;;;;;;4971181;28;20480;-85
2023/12/21 00:23:44;;;;;;;1.60;1.10;;;9.00;98.20;;;;;;4974824;28;20469;-85
2023/12/21 00:26:11;;;;;;;1.60;1.20;;;9.00;98.20;;;;;;4971722;28;20485;-85
2023/12/21 00:28:38;;;;;;;1.60;1.20;;;9.00;98.20;;;;;;5190593;23;20509;-78
2023/12/21 00:31:06;;;;;;;1.60;1.10;;;9.00;98.20;;;;;;4942821;28;20475;-78
2023/12/21 00:33:32;;;;;;;1.60;1.10;;;9.00;98.20;;;;;;4959854;28;20467;-78
2023/12/21 00:35:59;;;;;;;1.60;1.20;;;9.00;98.20;;;;;;4939874;28;20982;-77
2023/12/21 00:38:26;;;;;;;1.60;1.10;;;9.00;98.20;;;;;;4952077;28;20493;-79
2023/12/21 00:40:53;;;;;;;1.60;1.20;;;9.00;98.20;;;;;;4947433;28;20497;-77
2023/12/21 00:43:20;;;;;;;1.60;1.10;;;9.00;98.20;;;;;;4950840;28;20466;-80
2023/12/21 00:45:46;;;;;;;1.60;1.10;;;9.10;98.20;;;;;;4953068;28;20517;-79
2023/12/21 00:48:14;;;;;;;1.60;1.10;;;9.10;98.20;;;;;;4955633;28;21025;-78
2023/12/21 00:50:41;;;;;;;1.60;1.20;;;9.10;98.20;;;;;;4954166;28;20462;-78
2023/12/21 00:53:08;;;;;;;1.60;1.20;;;9.10;98.20;;;;;;4942622;28;20483;-79
2023/12/21 00:55:35;;;;;;;1.60;1.10;;;9.10;98.20;;;;;;4955472;28;20529;-80
2023/12/21 00:58:02;;;;;;;1.60;1.20;;;9.10;98.20;;;;;;4946403;28;20988;-80
2023/12/21 01:00:28;;;;;;;1.60;1.10;;;9.10;98.20;;;;;;4954472;28;20486;-79
2023/12/21 01:02:55;;;;;;;1.60;1.20;;;9.10;98.20;;;;;;4944185;28;20488;-80
2023/12/21 01:05:23;;;;;;;1.63;1.30;;;9.10;98.20;;;;;;4953838;28;20466;-79
2023/12/21 01:07:50;;;;;;;1.60;1.20;;;9.10;98.20;;;;;;4947539;28;20878;-79
2023/12/21 01:10:16;;;;;;;1.60;1.20;;;9.10;98.20;;;;;;4954218;28;20462;-80
2023/12/21 01:12:43;;;;;;;1.60;1.20;;;9.10;98.20;;;;;;4942548;28;20482;-80
2023/12/21 01:15:10;;;;;;;1.70;1.23;;;9.10;98.20;;;;;;4953407;28;20477;-79
2023/12/21 01:17:37;;;;;;;1.60;1.20;;;9.20;98.20;;;;;;4946989;28;20572;-79
2023/12/21 01:20:05;;;;;;;1.70;1.30;;;9.20;98.20;;;;;;4952412;28;20490;-79
2023/12/21 01:22:33;;;;;;;1.63;1.30;;;9.20;98.20;;;;;;4941699;28;20497;-79
2023/12/21 01:25:00;;;;;;;1.60;1.17;;;9.20;98.20;;;;;;4953426;28;20470;-79
2023/12/21 01:27:26;;;;;;;1.60;1.17;;;9.20;98.20;;;;;;4943120;28;20494;-79
2023/12/21 01:29:53;;;;;;;1.60;1.20;;;9.20;98.20;;;;;;4955259;28;20486;-78
2023/12/21 01:32:20;;;;;;;1.60;1.20;;;9.20;98.20;;;;;;4947727;28;21013;-78
2023/12/21 01:34:47;;;;;;;1.60;1.10;;;9.20;98.20;;;;;;4953793;28;20872;-79
2023/12/21 01:37:13;;;;;;;1.60;1.20;;;9.20;98.20;;;;;;4947397;28;20486;-79
2023/12/21 01:39:41;;;;;;;1.63;1.20;;;9.20;98.20;;;;;;4952576;28;20491;-78
2023/12/21 01:42:08;;;;;;;1.63;1.20;;;9.20;98.20;;;;;;4942538;28;20998;-79
2023/12/21 01:44:35;;;;;;;1.60;1.13;;;9.20;98.20;;;;;;4952806;28;20962;-80
2023/12/21 01:47:02;;;;;;;1.60;1.20;;;9.20;98.20;;;;;;4947741;28;20483;-79
2023/12/21 01:49:28;;;;;;;1.80;1.53;;;9.20;98.20;;;;;;4951673;28;21021;-78
2023/12/21 01:51:57;;;;;;;1.60;1.20;;;9.20;98.20;;;;;;4942394;28;21031;-80
2023/12/21 01:54:24;;;;;;;1.60;1.20;;;9.20;98.20;;;;;;4955410;28;20473;-79
2023/12/21 01:56:52;;;;;;;1.70;1.20;;;9.20;98.20;;;;;;4947036;28;20494;-80
2023/12/21 01:59:19;;;;;;;1.60;1.20;;;9.20;98.20;;;;;;4958683;28;20490;-77
2023/12/21 02:01:46;;;;;;;1.60;1.20;;;9.20;98.20;;;;;;4947926;28;20486;-78
2023/12/21 02:04:13;;;;;;;1.67;1.20;;;9.20;98.20;;;;;;4957016;28;20466;-77
2023/12/21 02:06:40;;;;;;;1.63;1.20;;;9.20;98.20;;;;;;4946014;28;20497;-78
2023/12/21 02:09:08;;;;;;;1.70;1.40;;;9.20;98.20;;;;;;4952724;28;20549;-78
2023/12/21 02:11:34;;;;;;;1.70;1.20;;;9.20;98.20;;;;;;4939219;28;20490;-78
2023/12/21 02:14:04;;;;;;;1.60;1.20;;;9.20;98.20;;;;;;4951775;28;20467;-79
2023/12/21 02:16:36;;;;;;;1.60;1.20;;;9.20;98.20;;;;;;4945371;28;20482;-77
2023/12/21 02:19:03;;;;;;;1.70;1.30;;;9.20;98.20;;;;;;4951166;28;20495;-79
2023/12/21 02:21:31;;;;;;;1.60;1.10;;;9.20;98.20;;;;;;4940381;28;20493;-79
2023/12/21 02:24:00;;;;;;;1.60;1.17;;;9.20;98.20;;;;;;4942400;28;20795;-79
2023/12/21 02:26:28;;;;;;;1.60;1.20;;;9.20;98.20;;;;;;4945150;28;20478;-79
2023/12/21 02:28:55;;;;;;;1.60;1.10;;;9.30;98.20;;;;;;4943488;28;20505;-79
2023/12/21 02:31:22;;;;;;;1.60;1.20;;;9.20;98.20;;;;;;4941169;28;20863;-78
2023/12/21 02:33:49;;;;;;;1.60;1.20;;;9.20;98.20;;;;;;4949278;28;20693;-79
2023/12/21 02:36:15;;;;;;;1.60;1.10;;;9.20;98.20;;;;;;4944544;28;20489;-76
2023/12/21 02:38:42;;;;;;;1.60;1.20;;;9.20;98.20;;;;;;4951432;28;20513;-79
2023/12/21 02:41:09;;;;;;;1.60;1.20;;;9.20;98.20;;;;;;4943007;28;20580;-79
2023/12/21 02:43:37;;;;;;;1.60;1.17;;;9.20;98.20;;;;;;4956437;28;20478;-79
2023/12/21 02:46:04;;;;;;;1.60;1.20;;;9.20;98.20;;;;;;4952238;28;20463;-78
2023/12/21 02:48:30;;;;;;;1.67;1.10;;;9.30;98.20;;;;;;4956381;28;21013;-79
2023/12/21 02:50:57;;;;;;;1.60;1.10;;;9.30;98.20;;;;;;4947663;28;20459;-77
2023/12/21 02:53:24;;;;;;;1.60;1.20;;;9.30;98.20;;;;;;4961131;28;20462;-78
2023/12/21 02:55:51;;;;;;;1.60;1.20;;;9.30;98.20;;;;;;4946207;28;20470;-77
2023/12/21 02:58:17;;;;;;;1.60;1.20;;;9.30;98.20;;;;;;4959876;28;20486;-78
2023/12/21 03:00:46;;;;;;;1.60;1.13;;;9.20;98.20;;;;;;4952687;28;20495;-77
2023/12/21 03:03:12;;;;;;;1.60;1.20;;;9.20;98.20;;;;;;4933085;28;20486;-77
2023/12/21 03:05:39;;;;;;;1.60;1.10;;;9.30;98.20;;;;;;4962498;28;20733;-79
2023/12/21 03:08:06;;;;;;;1.60;1.20;;;9.30;98.20;;;;;;4950059;28;20490;-79
2023/12/21 03:10:33;;;;;;;1.90;1.30;;;9.20;98.20;;;;;;4957723;28;20458;-78
2023/12/21 03:13:00;;;;;;;1.60;1.10;;;9.30;98.20;;;;;;4946764;28;20474;-78
2023/12/21 03:15:27;;;;;;;1.60;1.20;;;9.30;98.20;;;;;;4956400;28;20459;-78
2023/12/21 03:17:55;;;;;;;1.60;1.20;;;9.30;98.20;;;;;;4950249;28;20903;-79
2023/12/21 03:20:21;;;;;;;1.70;1.30;;;9.30;98.20;;;;;;4955694;28;20486;-79
2023/12/21 03:22:48;;;;;;;1.60;1.20;;;9.30;98.20;;;;;;4950132;28;20483;-79
2023/12/21 03:25:15;;;;;;;1.60;1.20;;;9.30;98.20;;;;;;4957019;28;20842;-79
2023/12/21 03:27:42;;;;;;;1.60;1.10;;;9.30;98.20;;;;;;4949583;28;20483;-79
2023/12/21 03:30:10;;;;;;;1.60;1.20;;;9.30;98.20;;;;;;4953253;28;20458;-78
2023/12/21 03:32:37;;;;;;;1.60;1.10;;;9.30;98.20;;;;;;4951478;28;20484;-78
2023/12/21 03:35:06;;;;;;;1.60;1.10;;;9.30;98.20;;;;;;4955398;28;20921;-77
2023/12/21 03:37:33;;;;;;;1.60;1.20;;;9.30;98.20;;;;;;4949977;28;20500;-78
2023/12/21 03:40:00;;;;;;;1.63;1.30;;;9.30;98.20;;;;;;4952663;28;20594;-79
2023/12/21 03:42:26;;;;;;;1.80;1.50;;;9.30;98.20;;;;;;4948228;28;20495;-78
2023/12/21 03:44:53;;;;;;;1.67;1.20;;;9.30;98.20;;;;;;4955541;28;20481;-79
2023/12/21 03:47:20;;;;;;;1.60;1.10;;;9.40;98.20;;;;;;4948109;28;20507;-78
2023/12/21 03:49:47;;;;;;;1.60;1.10;;;9.40;98.20;;;;;;4953475;28;20522;-77
2023/12/21 03:52:15;;;;;;;1.60;1.10;;;9.40;98.20;;;;;;4947400;28;20483;-79
2023/12/21 03:54:42;;;;;;;1.60;1.20;;;9.40;98.20;;;;;;4952425;28;20954;-80
2023/12/21 03:57:09;;;;;;;1.60;1.10;;;9.40;98.20;;;;;;4942118;28;20486;-77
2023/12/21 03:59:35;;;;;;;1.60;1.20;;;9.40;98.20;;;;;;4954739;28;20494;-78
2023/12/21 04:02:02;;;;;;;1.60;1.20;;;9.40;98.20;;;;;;4947055;28;21420;-78
2023/12/21 04:04:31;;;;;;;1.60;1.10;;;9.40;98.20;;;;;;4951012;28;20474;-77
2023/12/21 04:06:58;;;;;;;1.60;1.17;;;9.40;98.20;;;;;;4950020;28;20529;-78
2023/12/21 04:09:26;;;;;;;1.60;1.13;;;9.30;98.20;;;;;;4952155;28;20490;-78
2023/12/21 04:11:53;;;;;;;1.60;1.20;;;9.30;98.20;;;;;;4936593;28;20703;-80
2023/12/21 04:14:19;;;;;;;1.60;1.10;;;9.30;98.20;;;;;;4947052;28;20470;-79
2023/12/21 04:16:46;;;;;;;1.60;1.10;;;9.40;98.20;;;;;;4948231;28;20478;-79
2023/12/21 04:19:13;;;;;;;1.63;1.20;;;9.30;98.20;;;;;;4953952;28;20486;-78
2023/12/21 04:21:43;;;;;;;1.60;1.20;;;9.30;98.20;;;;;;4944041;28;20998;-79
2023/12/21 04:24:10;;;;;;;1.63;1.13;;;9.30;98.20;;;;;;4952106;28;20522;-78
2023/12/21 04:26:39;;;;;;;1.60;1.10;;;9.30;98.20;;;;;;4943762;28;20506;-78
2023/12/21 04:29:05;;;;;;;1.63;1.20;;;9.30;98.20;;;;;;4953996;28;20494;-79
2023/12/21 04:31:32;;;;;;;1.60;1.10;;;9.40;98.20;;;;;;4948299;28;20474;-78
2023/12/21 04:33:59;;;;;;;1.60;1.20;;;9.40;98.20;;;;;;4953846;28;20467;-79
2023/12/21 04:36:27;;;;;;;1.60;1.10;;;9.40;98.20;;;;;;4947102;28;20898;-78
2023/12/21 04:38:55;;;;;;;1.60;1.20;;;9.40;98.20;;;;;;4959930;28;20541;-78
2023/12/21 04:41:22;;;;;;;1.60;1.10;;;9.40;98.20;;;;;;4943083;28;20500;-77
2023/12/21 04:43:50;;;;;;;1.60;1.10;;;9.40;98.20;;;;;;4954242;28;20463;-79
2023/12/21 04:46:18;;;;;;;1.60;1.10;;;9.40;98.20;;;;;;4947469;28;20624;-78
2023/12/21 04:48:45;;;;;;;1.60;1.10;;;9.40;98.20;;;;;;4955072;28;20491;-77
2023/12/21 04:51:15;;;;;;;1.67;1.33;;;9.40;98.20;;;;;;4946680;28;20494;-78
2023/12/21 04:53:42;;;;;;;1.60;1.20;;;9.40;98.20;;;;;;4954345;28;20475;-78
2023/12/21 04:56:09;;;;;;;1.60;1.10;;;9.40;98.20;;;;;;4944038;28;20492;-78
2023/12/21 04:58:37;;;;;;;1.60;1.10;;;9.40;98.20;;;;;;4952996;28;20497;-78
2023/12/21 05:01:07;;;;;;;1.60;1.10;;;9.40;98.20;;;;;;4946726;28;20491;-77
2023/12/21 05:03:34;;;;;;;1.60;1.20;;;9.40;98.20;;;;;;4955421;28;20473;-78
2023/12/21 05:06:01;;;;;;;1.60;1.20;;;9.40;98.20;;;;;;4945653;28;20557;-78
2023/12/21 05:08:28;;;;;;;1.63;1.20;;;9.40;98.20;;;;;;4951873;28;20483;-78
2023/12/21 05:10:55;;;;;;;1.60;1.10;;;9.40;98.20;;;;;;4944056;28;20946;-78
2023/12/21 05:13:22;;;;;;;1.70;1.30;;;9.40;98.20;;;;;;4957747;28;20491;-78
2023/12/21 05:15:48;;;;;;;1.60;1.20;;;9.40;98.20;;;;;;4944661;28;20466;-78
2023/12/21 05:18:16;;;;;;;1.60;1.10;;;9.40;98.20;;;;;;4954318;28;21009;-76
2023/12/21 05:20:43;;;;;;;1.60;1.20;;;9.40;98.20;;;;;;4952409;28;20499;-78
2023/12/21 05:23:10;;;;;;;1.60;1.10;;;9.40;98.20;;;;;;4946590;28;20494;-78
2023/12/21 05:25:37;;;;;;;1.60;1.20;;;9.40;98.20;;;;;;4953881;28;20478;-78
2023/12/21 05:28:04;;;;;;;1.60;1.10;;;9.40;98.20;;;;;;4935697;29;20690;-78
2023/12/21 05:30:30;;;;;;;1.60;1.20;;;9.40;98.20;;;;;;4953117;28;20455;-75
2023/12/21 05:32:57;;;;;;;1.60;1.10;;;9.40;98.20;;;;;;4945950;28;20507;-78
2023/12/21 05:35:26;;;;;;;1.60;1.10;;;9.40;98.20;;;;;;4954361;28;20470;-76
2023/12/21 05:37:52;;;;;;;1.63;1.10;;;9.40;98.20;;;;;;4940677;28;20478;-78
2023/12/21 05:40:19;;;;;;;1.60;1.20;;;9.40;98.20;;;;;;4953329;28;20474;-78
2023/12/21 05:42:46;;;;;;;1.60;1.10;;;9.40;98.20;;;;;;4946307;28;20589;-78
2023/12/21 05:45:13;;;;;;;1.60;1.10;;;9.40;98.20;;;;;;4947919;28;20459;-78
2023/12/21 05:47:39;;;;;;;1.60;1.10;;;9.40;98.20;;;;;;4947871;28;20499;-79
2023/12/21 05:50:08;;;;;;;1.60;1.20;;;9.40;98.20;;;;;;4954525;28;20465;-79
2023/12/21 05:52:36;;;;;;;1.60;1.10;;;9.50;98.20;;;;;;4944651;28;21104;-79
2023/12/21 05:55:05;;;;;;;1.60;1.10;;;9.50;98.20;;;;;;4953965;28;20461;-77
2023/12/21 05:57:31;;;;;;;1.60;1.10;;;9.50;98.20;;;;;;4949431;28;20494;-79
2023/12/21 05:59:58;;;;;;;1.60;1.10;;;9.50;98.20;;;;;;4952839;28;20486;-78
2023/12/21 06:02:25;;;;;;;1.60;1.20;;;9.50;98.20;;;;;;4948605;28;20498;-77
2023/12/21 06:04:52;;;;;;;1.63;1.20;;;9.50;98.20;;;;;;4952912;28;20470;-77
2023/12/21 06:07:19;;;;;;;1.60;1.20;;;9.50;98.20;;;;;;4947131;28;20597;-78
2023/12/21 06:09:47;;;;;;;1.60;1.20;;;9.50;98.20;;;;;;4953547;28;20514;-79
2023/12/21 06:12:14;;;;;;;1.60;1.10;;;9.50;98.20;;;;;;4940531;28;20497;-77
2023/12/21 06:14:40;;;;;;;1.60;1.10;;;9.50;98.20;;;;;;4954099;28;20676;-78
2023/12/21 06:17:07;;;;;;;1.60;1.13;;;9.60;98.20;;;;;;4947940;28;20479;-77
2023/12/21 06:19:34;;;;;;;1.60;1.00;;;9.60;98.20;;;;;;4953115;28;21009;-79
2023/12/21 06:22:01;;;;;;;1.67;1.33;;;9.60;98.20;;;;;;4944193;28;20963;-77
2023/12/21 06:24:27;;;;;;;1.60;1.20;;;9.60;98.20;;;;;;4953508;28;20498;-79
2023/12/21 06:26:55;;;;;;;1.60;1.20;;;9.60;98.20;;;;;;4947469;28;20478;-79
2023/12/21 06:29:21;;;;;;;1.63;1.20;;;9.60;98.20;;;;;;4949909;28;20497;-79
2023/12/21 06:31:48;;;;;;;1.60;1.10;;;9.60;98.20;;;;;;4943600;28;20466;-79
2023/12/21 06:34:15;;;;;;;1.67;1.20;;;9.60;98.20;;;;;;4954363;28;20211;-78
2023/12/21 06:36:41;;;;;;;1.67;1.30;;;9.70;98.20;;;;;;4948988;28;20540;-79
2023/12/21 06:39:09;;;;;;;1.60;1.10;;;9.60;98.20;;;;;;4950015;28;20494;-78
2023/12/21 06:41:35;;;;;;;1.60;1.13;;;9.70;98.20;;;;;;4941220;28;20483;-78
2023/12/21 06:44:04;;;;;;;1.60;1.10;;;9.70;98.20;;;;;;4949721;28;20475;-79
2023/12/21 06:46:30;;;;;;;1.70;1.20;;;9.70;98.20;;;;;;4947234;28;21055;-78
2023/12/21 06:48:57;;;;;;;1.70;1.20;;;9.70;98.20;;;;;;4952124;28;20487;-78
2023/12/21 06:51:24;;;;;;;1.60;1.20;;;9.70;98.20;;;;;;4946296;28;20481;-78
2023/12/21 06:53:51;;;;;;;1.60;1.13;;;9.70;98.20;;;;;;4952942;28;20483;-79
2023/12/21 06:56:18;;;;;;;1.67;1.20;;;9.70;98.20;;;;;;4941604;28;20490;-79
2023/12/21 06:58:45;;;;;;;1.63;1.20;;;9.70;98.20;;;;;;4953175;28;20487;-79
2023/12/21 07:01:13;;;;;;;1.60;1.23;;;9.70;98.20;;;;;;4943672;28;20493;-81
2023/12/21 07:03:40;;;;;;;1.67;1.27;;;9.70;98.20;;;;;;4955752;28;21067;-78
2023/12/21 07:06:09;;;;;;;1.70;1.23;;;9.70;98.20;;;;;;4943675;28;20480;-77
2023/12/21 07:08:36;;;;;;;1.63;1.20;;;9.70;98.20;;;;;;4957027;28;20516;-76
2023/12/21 07:11:02;;;;;;;1.60;1.10;;;9.70;98.20;;;;;;4952644;28;20978;-79
2023/12/21 07:13:29;;;;;;;1.60;1.20;;;9.70;98.20;;;;;;4961390;28;20459;-79
2023/12/21 07:15:56;;;;;;;1.60;1.10;;;9.70;98.20;;;;;;4943089;28;21222;-80
2023/12/21 07:18:24;;;;;;;1.60;1.10;;;9.70;98.20;;;;;;4960085;28;20497;-77
2023/12/21 07:20:51;;;;;;;1.60;1.20;;;9.70;98.20;;;;;;4953349;28;20866;-80
2023/12/21 07:23:18;;;;;;;1.63;1.20;;;9.80;98.20;;;;;;4957597;28;20459;-78
2023/12/21 07:25:45;;;;;;;1.63;1.17;;;9.80;98.20;;;;;;4957568;28;20467;-76
2023/12/21 07:28:12;;;;;;;1.67;1.17;;;9.80;98.20;;;;;;4928692;28;20490;-76
2023/12/21 07:30:39;;;;;;;1.60;1.10;;;9.80;98.20;;;;;;4955897;28;20493;-79
2023/12/21 07:33:06;;;;;;;1.67;1.20;;;9.80;98.20;;;;;;4942552;28;21117;-78
2023/12/21 07:35:34;;;;;;;1.60;1.10;;;9.80;98.20;;;;;;4957195;28;20459;-79
2023/12/21 07:38:00;;;;;;;1.63;1.20;;;9.80;98.20;;;;;;4949425;28;20489;-79
2023/12/21 07:40:28;;;;;;;1.60;1.10;;;9.80;98.20;;;;;;4942387;28;20474;-77
2023/12/21 07:42:55;;;;;;;1.63;1.20;;;9.80;98.20;;;;;;4943969;28;20568;-77
2023/12/21 07:45:22;;;;;;;1.63;1.10;;;9.80;98.20;;;;;;4954811;28;20467;-77
2023/12/21 07:47:49;;;;;;;1.60;1.10;;;9.80;98.20;;;;;;4942624;28;21057;-78
2023/12/21 07:50:16;;;;;;;1.63;1.20;;;9.80;98.20;;;;;;4953548;28;20470;-77
2023/12/21 07:52:44;;;;;;;1.60;1.20;;;9.90;98.20;;;;;;4945241;28;20509;-79
2023/12/21 07:55:11;;;;;;;1.60;1.10;;;9.90;98.20;;;;;;4952297;28;20477;-78
2023/12/21 07:57:38;;;;;;;1.60;1.20;;;9.90;98.20;;;;;;4948234;28;20485;-79
2023/12/21 08:00:06;;;;;;;1.60;1.10;;;9.90;98.20;;;;;;4945551;28;21061;-77
2023/12/21 08:02:33;;;;;;;1.60;1.10;;;9.90;98.20;;;;;;4940537;28;20489;-77
2023/12/21 08:04:59;;;;;;;1.60;1.20;;;9.90;98.20;;;;;;4952828;28;20462;-80
2023/12/21 08:07:26;;;;;;;1.63;1.10;;;9.90;98.20;;;;;;4938588;28;20486;-80
2023/12/21 08:09:54;;;;;;;1.60;1.10;;;10.00;98.20;;;;;;4951689;28;21162;-77
2023/12/21 08:12:21;;;;;;;1.60;1.10;;;10.00;98.20;;;;;;4933944;28;20476;-76
2023/12/21 08:14:48;;;;;;;1.60;1.10;;;10.00;98.20;;;;;;4949475;28;20471;-78
2023/12/21 08:17:17;;;;;;;1.60;1.20;;;10.00;98.20;;;;;;4943118;28;20498;-79
2023/12/21 08:19:44;;;;;;;1.60;1.10;;;10.00;98.20;;;;;;4953395;28;21029;-79
2023/12/21 08:22:10;;;;;;;1.63;1.13;;;10.00;98.20;;;;;;4941765;28;20490;-78
2023/12/21 08:24:37;;;;;;;1.67;1.20;;;10.10;98.20;;;;;;4956277;28;20477;-77
2023/12/21 08:27:06;;;;;;;1.70;1.30;;;10.10;98.20;;;;;;4945004;28;20566;-79
2023/12/21 08:29:33;;;;;;;1.60;1.10;;;10.10;98.20;;;;;;4947208;28;20491;-79
2023/12/21 08:32:00;;;;;;;1.60;1.10;;;10.10;98.20;;;;;;4934776;28;20502;-79
2023/12/21 08:34:27;;;;;;;1.63;1.20;;;10.10;98.20;;;;;;4946426;28;20544;-77
2023/12/21 08:36:54;;;;;;;1.60;1.10;;;10.10;98.20;;;;;;4933536;28;20502;-78
2023/12/21 08:39:21;;;;;;;1.63;1.20;;;10.10;98.20;;;;;;4946752;28;20487;-77
2023/12/21 08:41:47;;;;;;;1.63;1.10;;;10.10;98.20;;;;;;4941931;28;21159;-76
2023/12/21 08:44:16;;;;;;;1.60;1.20;;;10.10;98.20;;;;;;4951758;28;20470;-76
2023/12/21 08:46:43;;;;;;;1.60;1.17;;;10.10;98.20;;;;;;4936159;28;20482;-76
2023/12/21 08:49:11;;;;;;;1.60;1.10;;;10.10;98.20;;;;;;4942059;28;20530;-76
2023/12/21 08:51:38;;;;;;;1.70;1.20;;;10.10;98.20;;;;;;4937179;28;20482;-77
2023/12/21 08:54:06;;;;;;;1.60;1.10;;;10.10;98.20;;;;;;4944606;28;20981;-78
2023/12/21 08:56:34;;;;;;;1.60;1.10;;;10.10;98.20;;;;;;4945990;28;20490;-76
2023/12/21 08:59:01;;;;;;;1.83;1.63;;;10.10;98.20;;;;;;4969381;28;20485;-79
2023/12/21 09:01:30;;;;;;;1.63;1.10;;;10.10;98.20;;;;;;4947284;28;20574;-78
2023/12/21 09:03:58;;;;;;;1.63;1.17;;;10.10;98.20;;;;;;4943813;28;20590;-77
2023/12/21 09:06:25;;;;;;;1.60;1.10;;;10.10;98.20;;;;;;4939685;28;20859;-77
2023/12/21 09:08:52;;;;;;;1.60;1.10;;;10.10;98.20;;;;;;4948452;28;20654;-77
2023/12/21 09:11:19;;;;;;;1.60;1.13;;;10.10;98.20;;;;;;4940366;28;20482;-76
2023/12/21 09:13:46;;;;;;;1.60;1.10;;;10.10;98.20;;;;;;4945260;28;20474;-78
2023/12/21 09:16:14;;;;;;;1.60;1.20;;;10.10;98.20;;;;;;4943399;28;20486;-77
2023/12/21 09:18:44;;;;;;;1.87;1.40;;;10.10;98.20;;;;;;4952359;28;20984;-78
2023/12/21 09:21:11;;;;;;;1.67;1.10;;;10.10;98.20;;;;;;4943621;28;20493;-77
2023/12/21 09:23:38;;;;;;;1.60;1.10;;;10.10;98.20;;;;;;4953095;28;20953;-77
2023/12/21 09:26:08;;;;;;;1.70;1.20;;;10.10;98.20;;;;;;4938579;28;20509;-77
2023/12/21 09:28:36;;;;;;;1.60;1.10;;;10.10;98.20;;;;;;4949718;28;20523;-75
2023/12/21 09:31:04;;;;;;;1.60;1.10;;;10.10;98.20;;;;;;4933884;28;20605;-75
2023/12/21 09:33:34;;;;;;;1.60;1.10;;;10.10;98.20;;;;;;4947504;28;20474;-75
2023/12/21 09:36:02;;;;;;;1.60;1.10;;;10.10;98.20;;;;;;4940617;28;20466;-76
2023/12/21 09:38:30;;;;;;;1.60;1.00;;;10.10;98.20;;;;;;4952529;28;20478;-76
2023/12/21 09:40:58;;;;;;;1.60;1.10;;;10.10;98.20;;;;;;4939176;28;20471;-77
2023/12/21 09:43:25;;;;;;;2.53;2.30;;;10.10;98.20;;;;;;4952209;28;20865;-76
2023/12/21 09:45:52;;;;;;;1.70;1.20;;;10.10;98.20;;;;;;4938919;28;20541;-77
2023/12/21 09:48:21;;;;;;;1.60;1.20;;;10.10;98.20;;;;;;4946524;28;21057;-75
2023/12/21 09:50:50;;;;;;;1.60;1.20;;;10.10;98.20;;;;;;4940876;28;20554;-76
2023/12/21 09:53:21;;;;;;;1.63;1.20;;;10.20;98.20;;;;;;4948577;28;20497;-75
2023/12/21 09:55:50;;;;;;;1.60;1.10;;;10.10;98.20;;;;;;4939231;28;20471;-76
2023/12/21 09:58:18;;;;;;;1.60;1.10;;;10.20;98.20;;;;;;4948958;28;20483;-76
2023/12/21 10:00:45;;;;;;;1.63;1.20;;;10.20;98.20;;;;;;4945282;28;20467;-75
2023/12/21 10:03:12;;;;;;;1.60;1.10;;;10.20;98.20;;;;;;4924217;28;20594;-75
2023/12/21 10:05:40;;;;;;;2.43;1.53;;;10.20;98.20;;;;;;4948814;28;20474;-75
2023/12/21 10:08:08;;;;;;;1.60;1.10;;;10.20;98.20;;;;;;4938766;28;20516;-76
2023/12/21 10:10:38;;;;;;;1.60;1.10;;;10.20;98.20;;;;;;4947599;28;21073;-77
2023/12/21 10:13:05;;;;;;;1.70;1.20;;;10.20;98.20;;;;;;4940664;28;20489;-76
2023/12/21 10:15:34;;;;;;;1.60;1.10;;;10.20;98.20;;;;;;4948709;28;21020;-74
2023/12/21 10:18:01;;;;;;;1.60;1.10;;;10.20;98.20;;;;;;4941298;28;20874;-77
2023/12/21 10:20:28;;;;;;;1.60;1.10;;;10.30;98.20;;;;;;4945793;28;20577;-75
2023/12/21 10:22:56;;;;;;;1.60;1.10;;;10.30;98.20;;;;;;4935604;28;20517;-77
2023/12/21 10:25:24;;;;;;;1.60;1.20;;;10.30;98.20;;;;;;4947900;28;20471;-77
2023/12/21 10:27:56;;;;;;;1.60;1.10;;;10.30;98.20;;;;;;4929960;28;20586;-76
2023/12/21 10:30:24;;;;;;;1.60;1.10;;;10.30;98.20;;;;;;4955283;28;20585;-76
2023/12/21 10:32:55;;;;;;;1.60;1.10;;;10.30;98.20;;;;;;4927110;28;21001;-75
2023/12/21 10:35:22;;;;;;;1.60;1.10;;;10.40;98.20;;;;;;4952725;28;20482;-76
2023/12/21 10:37:50;;;;;;;1.67;1.10;;;10.40;98.20;;;;;;4939720;28;20995;-75
2023/12/21 10:40:17;;;;;;;1.60;1.10;;;10.40;98.20;;;;;;4951446;28;20467;-75
2023/12/21 10:42:46;;;;;;;1.70;1.20;;;10.40;98.20;;;;;;4929077;28;20582;-75
2023/12/21 10:45:16;;;;;;;1.60;1.20;;;10.40;98.20;;;;;;4950377;28;20462;-76
2023/12/21 10:47:48;;;;;;;1.70;1.30;;;10.40;98.20;;;;;;4943450;28;20482;-76
2023/12/21 10:50:17;;;;;;;1.67;1.27;;;10.40;98.20;;;;;;4952840;28;20471;-76
2023/12/21 10:52:47;;;;;;;1.60;1.13;;;10.50;98.20;;;;;;4942462;28;20505;-76
2023/12/21 10:55:16;;;;;;;1.60;1.10;;;10.50;98.20;;;;;;4955788;28;20989;-77
2023/12/21 10:57:44;;;;;;;1.63;1.20;;;10.50;98.20;;;;;;4936343;28;20478;-77
2023/12/21 11:00:15;;;;;;;1.63;1.20;;;10.50;98.20;;;;;;4953607;28;20475;-76
2023/12/21 11:02:46;;;;;;;1.60;1.20;;;10.50;98.20;;;;;;4941267;28;20478;-76
2023/12/21 11:05:19;;;;;;;1.60;1.10;;;10.50;98.20;;;;;;4957115;28;20561;-77
2023/12/21 11:07:49;;;;;;;1.70;1.20;;;10.50;98.20;;;;;;4943418;28;20827;-75
2023/12/21 11:10:18;;;;;;;1.60;1.10;;;10.50;98.20;;;;;;4952093;28;20537;-75
2023/12/21 11:12:45;;;;;;;1.60;1.10;;;10.50;98.20;;;;;;4942522;28;21158;-75
2023/12/21 11:15:15;;;;;;;1.60;1.10;;;10.50;98.20;;;;;;4955182;28;21170;-76
2023/12/21 11:17:51;;;;;;;2.20;1.67;;;10.50;98.20;;;;;;4938003;28;20484;-77
2023/12/21 11:20:23;;;;;;;1.60;1.10;;;10.50;98.20;;;;;;4953310;28;21104;-76
2023/12/21 11:22:51;;;;;;;1.63;1.10;;;10.50;98.20;;;;;;4941620;28;20884;-76
2023/12/21 11:25:22;;;;;;;1.60;1.10;;;10.60;98.20;;;;;;4955776;28;20859;-76
2023/12/21 11:27:52;;;;;;;1.60;1.10;;;10.60;98.20;;;;;;4939888;28;20497;-76
2023/12/21 11:30:22;;;;;;;1.60;1.10;;;10.60;98.20;;;;;;4948165;28;20478;-77
2023/12/21 11:32:51;;;;;;;1.60;1.10;;;10.70;98.20;;;;;;4938172;28;20486;-76
2023/12/21 11:35:21;;;;;;;1.60;1.10;;;10.70;98.20;;;;;;4950278;28;20471;-75
2023/12/21 11:37:51;;;;;;;1.60;1.00;;;10.70;98.20;;;;;;4937934;28;21036;-76
2023/12/21 11:40:20;;;;;;;1.70;1.10;;;10.70;98.20;;;;;;4950458;28;20506;-77
2023/12/21 11:42:49;;;;;;;1.70;1.20;;;10.80;98.20;;;;;;4942966;28;20486;-76
2023/12/21 11:45:24;;;;;;;1.60;1.10;;;10.80;98.20;;;;;;4955109;28;20470;-79
2023/12/21 11:47:54;;;;;;;1.60;1.10;;;10.90;98.20;;;;;;4938959;28;21013;-80
2023/12/21 11:50:26;;;;;;;1.60;1.10;;;10.90;98.20;;;;;;4953359;28;20463;-79
2023/12/21 11:53:06;;;;;;;1.60;1.10;;;10.90;98.20;;;;;;4940927;28;20473;-77
2023/12/21 11:55:39;;;;;;;1.60;1.10;;;10.90;98.20;;;;;;4948045;28;20475;-77
2023/12/21 11:58:15;;;;;;;1.70;1.23;;;10.90;98.20;;;;;;4944200;28;20486;-77
2023/12/21 12:00:44;;;;;;;1.60;1.10;;;10.90;98.20;;;;;;4958898;28;20524;-78
2023/12/21 12:03:15;;;;;;;2.10;1.33;;;11.00;98.20;;;;;;4943058;28;20529;-78
2023/12/21 12:05:42;;;;;;;1.63;1.10;;;11.00;98.20;;;;;;4956275;28;20470;-78
2023/12/21 12:08:12;;;;;;;1.63;1.10;;;11.10;98.20;;;;;;4948210;28;20497;-77
2023/12/21 12:13:34;;;;;;;1.70;1.20;;;11.20;98.20;;;;;;4950866;28;20474;-79
2023/12/21 12:16:02;;;;;;;1.60;1.10;;;11.20;98.20;;;;;;4953621;28;20522;-77
2023/12/21 12:21:24;;;;;;;1.63;1.10;;;11.30;98.20;;;;;;4996548;23;20506;-80
2023/12/21 12:23:59;;;;;;;1.60;1.10;;;11.30;98.20;;;;;;4992711;28;20461;-81
2023/12/21 12:26:38;;;;;;;1.63;1.10;;;11.30;98.20;;;;;;4978249;28;20489;-76
2023/12/21 12:29:09;;;;;;;1.70;1.20;;;11.40;98.20;;;;;;5008985;28;20480;-78
2023/12/21 12:31:37;;;;;;;1.60;1.10;;;11.40;98.20;;;;;;4998333;28;20489;-77
2023/12/21 12:34:04;;;;;;;1.70;1.10;;;11.40;98.20;;;;;;5011828;28;20461;-77
2023/12/21 12:36:33;;;;;;;1.60;1.10;;;11.50;98.20;;;;;;4991642;28;20490;-77
2023/12/21 12:39:00;;;;;;;1.67;1.10;;;11.50;98.20;;;;;;5008293;23;20484;-78
2023/12/21 12:41:32;;;;;;;1.60;1.10;;;11.50;98.20;;;;;;4964817;28;20577;-81
2023/12/21 12:44:05;;;;;;;1.80;1.47;;;11.60;98.20;;;;;;4978179;28;20512;-80
2023/12/21 12:46:39;;;;;;;1.60;1.00;;;11.60;98.20;;;;;;4977433;28;20477;-80
2023/12/21 12:49:07;;;;;;;1.67;1.13;;;11.60;98.20;;;;;;4974006;28;20494;-79
2023/12/21 12:52:21;;;;;;;1.70;1.10;;;11.60;98.20;;;;;;4942105;28;20507;-80
2023/12/21 12:54:55;;;;;;;1.63;1.10;;;11.60;98.20;;;;;;4974913;28;20474;-79
2023/12/21 13:00:12;;;;;;;1.60;1.10;;;11.60;98.20;;;;;;4993461;23;20528;-80
2023/12/21 13:10:38;;;;;;;1.63;1.10;;;11.60;98.20;;;;;;5399663;23;20564;-80
2023/12/21 13:13:10;;;;;;;1.60;1.10;;;11.60;98.20;;;;;;4971379;28;20468;-80